Time;durP1;ratioP1;P1;durP2;ratioP2;P2;SDS_P1;SDS_P2;PMS_P1;PMS_P2;Temp;Humidity;BMP_temperature;BMP_pressure;BME280_temperature;BME280_humidity;BME280_pressure;Samples;Min_cycle;Max_cycle;Signal;HPM_P1;HPM_P2
2022/01/25 00:26:58;;;;;;;15.37;7.07;;;0.80;99.90;;;;;;5114743;28;20040;-80
2022/01/25 00:29:47;;;;;;;18.63;7.65;;;0.80;99.90;;;;;;5113211;28;20024;-78
2022/01/25 00:32:15;;;;;;;16.53;7.53;;;0.80;99.90;;;;;;5097284;27;20030;-79
2022/01/25 00:34:40;;;;;;;18.90;7.27;;;0.80;99.90;;;;;;5103862;28;20055;-79
2022/01/25 00:37:06;;;;;;;14.13;7.00;;;0.80;99.90;;;;;;5095116;28;20417;-78
2022/01/25 00:39:32;;;;;;;16.83;7.37;;;0.80;99.90;;;;;;5113401;28;20465;-78
2022/01/25 00:41:57;;;;;;;15.10;7.10;;;0.80;99.90;;;;;;5113452;28;20034;-77
2022/01/25 00:44:24;;;;;;;12.60;6.97;;;0.70;99.90;;;;;;5113812;28;20031;-78
2022/01/25 00:46:50;;;;;;;13.40;7.23;;;0.70;99.90;;;;;;5095318;28;20028;-79
2022/01/25 00:49:25;;;;;;;18.23;7.67;;;0.70;99.90;;;;;;5121279;27;20087;-78
2022/01/25 00:54:28;;;;;;;16.70;7.43;;;0.60;99.90;;;;;;5121509;27;20517;-78
2022/01/25 00:56:56;;;;;;;13.37;6.83;;;0.60;99.90;;;;;;5106063;27;20028;-77
2022/01/25 00:59:25;;;;;;;15.80;6.70;;;0.60;99.90;;;;;;5121074;27;20026;-79
2022/01/25 01:01:53;;;;;;;15.70;7.40;;;0.60;99.90;;;;;;5095574;28;20054;-78
2022/01/25 01:04:19;;;;;;;17.37;7.37;;;0.60;99.90;;;;;;5123487;27;20026;-78
2022/01/25 01:06:46;;;;;;;14.30;6.73;;;0.70;99.90;;;;;;5104146;27;20024;-79
2022/01/25 01:09:13;;;;;;;18.93;8.03;;;0.70;99.90;;;;;;5106145;27;20410;-78
2022/01/25 01:11:57;;;;;;;12.53;6.90;;;0.70;99.90;;;;;;5100948;27;20027;-78
2022/01/25 01:14:49;;;;;;;15.90;7.37;;;0.70;99.90;;;;;;5113842;27;20477;-82
2022/01/25 01:43:55;;;;;;;13.90;7.10;;;0.40;99.90;;;;;;5113644;28;20024;-78
2022/01/25 01:46:34;;;;;;;15.07;7.27;;;0.40;99.90;;;;;;5094275;28;20032;-78
2022/01/25 01:49:02;;;;;;;17.33;7.30;;;0.40;99.90;;;;;;5093824;28;20077;-77
2022/01/25 01:51:33;;;;;;;15.80;6.57;;;0.50;99.90;;;;;;5094322;28;20027;-81
2022/01/25 01:54:10;;;;;;;14.35;6.60;;;0.40;99.90;;;;;;5095057;28;20024;-80
2022/01/25 01:56:37;;;;;;;13.50;6.87;;;0.30;99.90;;;;;;5096145;28;20118;-83
2022/01/25 01:59:06;;;;;;;14.17;6.67;;;0.30;99.90;;;;;;5112513;28;20653;-79
2022/01/25 02:01:34;;;;;;;15.10;6.17;;;0.30;99.90;;;;;;5102102;28;20181;-78
2022/01/25 02:04:02;;;;;;;15.73;6.73;;;0.40;99.90;;;;;;5100302;28;20055;-78
2022/01/25 02:06:28;;;;;;;14.83;7.43;;;0.30;99.90;;;;;;5116476;28;20034;-79
2022/01/25 02:08:54;;;;;;;14.33;7.30;;;0.20;99.90;;;;;;5095027;28;20031;-84
2022/01/25 02:11:21;;;;;;;15.13;7.40;;;0.20;99.90;;;;;;5094720;28;20078;-83
2022/01/25 02:13:48;;;;;;;15.63;6.60;;;0.20;99.90;;;;;;5094956;28;20421;-83
2022/01/25 02:24:30;;;;;;;18.73;7.20;;;0.20;99.90;;;;;;5113100;28;20026;-82
2022/01/25 02:26:57;;;;;;;17.30;7.67;;;0.10;99.90;;;;;;5096006;28;20031;-80
2022/01/25 02:29:23;;;;;;;18.90;7.00;;;0.10;99.90;;;;;;5095598;28;20514;-81
2022/01/25 02:31:49;;;;;;;12.97;7.13;;;0.00;99.90;;;;;;5090758;28;20031;-84
2022/01/25 02:34:15;;;;;;;73.03;27.00;;;0.00;99.90;;;;;;5093912;28;20035;-87
2022/01/25 02:36:41;;;;;;;18.73;8.83;;;0.10;99.90;;;;;;5094648;28;20027;-82
2022/01/25 02:39:06;;;;;;;15.00;8.00;;;0.20;99.90;;;;;;5094146;28;20030;-81
2022/01/25 02:41:33;;;;;;;15.53;6.97;;;0.10;99.90;;;;;;5094524;28;20028;-81
2022/01/25 02:43:59;;;;;;;12.03;6.67;;;0.10;99.90;;;;;;5094763;28;20057;-78
2022/01/25 02:48:59;;;;;;;18.52;8.07;;;0.00;99.90;;;;;;5115522;28;20031;-78
2022/01/25 02:51:26;;;;;;;14.93;7.67;;;0.00;99.90;;;;;;5097904;28;20076;-78
2022/01/25 02:53:53;;;;;;;17.60;7.47;;;-0.10;99.90;;;;;;5098869;28;20050;-80
2022/01/25 02:56:18;;;;;;;16.37;7.10;;;-0.10;99.90;;;;;;5098084;28;20456;-81
2022/01/25 02:58:44;;;;;;;12.87;6.90;;;-0.20;99.90;;;;;;5097865;28;20035;-81
2022/01/25 03:01:10;;;;;;;15.40;7.23;;;-0.20;99.90;;;;;;5115400;28;20027;-79
2022/01/25 03:03:37;;;;;;;18.00;7.63;;;-0.20;99.90;;;;;;5097562;28;20032;-80
2022/01/25 03:06:04;;;;;;;15.57;7.40;;;-0.20;99.90;;;;;;5085349;28;20453;-80
2022/01/25 03:08:30;;;;;;;14.80;6.60;;;-0.20;99.90;;;;;;5116147;28;20028;-80
2022/01/25 03:10:56;;;;;;;15.83;7.17;;;-0.20;99.90;;;;;;5097435;28;20032;-79
2022/01/25 03:13:27;;;;;;;14.27;7.30;;;-0.20;99.90;;;;;;5115818;28;20084;-80
2022/01/25 03:15:58;;;;;;;14.45;7.32;;;-0.20;99.90;;;;;;5098410;28;20453;-79
2022/01/25 03:21:04;;;;;;;15.43;7.73;;;-0.20;99.90;;;;;;5116271;28;20395;-78
2022/01/25 03:23:32;;;;;;;13.23;7.03;;;-0.20;99.90;;;;;;5116569;28;20028;-80
2022/01/25 03:25:58;;;;;;;12.40;6.90;;;-0.20;99.90;;;;;;5080970;28;20047;-79
2022/01/25 03:28:24;;;;;;;14.70;7.13;;;-0.20;99.90;;;;;;5116336;28;20416;-81
2022/01/25 03:30:50;;;;;;;12.93;7.30;;;-0.20;99.90;;;;;;5098004;28;20050;-81
2022/01/25 03:33:17;;;;;;;16.43;6.90;;;-0.20;99.90;;;;;;5097691;28;20023;-81
2022/01/25 03:35:45;;;;;;;11.97;5.93;;;-0.10;99.90;;;;;;5085723;28;20028;-80
2022/01/25 03:38:11;;;;;;;13.40;6.53;;;-0.10;99.90;;;;;;5115657;28;20028;-80
2022/01/25 03:40:37;;;;;;;14.03;6.87;;;-0.20;99.90;;;;;;5097814;28;20050;-79
2022/01/25 03:43:05;;;;;;;13.50;6.50;;;-0.10;99.90;;;;;;5097218;28;20486;-80
2022/01/25 03:45:34;;;;;;;14.07;6.53;;;-0.20;99.90;;;;;;5097798;28;20024;-84
2022/01/25 03:50:42;;;;;;;14.80;6.77;;;-0.10;99.90;;;;;;5116153;28;20161;-83
2022/01/25 03:53:09;;;;;;;12.67;7.13;;;-0.10;99.90;;;;;;5096908;28;20511;-84
2022/01/25 03:55:35;;;;;;;14.87;6.73;;;-0.20;99.90;;;;;;5097285;28;20036;-82
2022/01/25 03:58:01;;;;;;;11.53;6.33;;;-0.30;99.90;;;;;;5096931;28;20026;-83
2022/01/25 04:00:27;;;;;;;10.77;6.33;;;-0.30;99.90;;;;;;5115175;28;20081;-82
2022/01/25 04:03:02;;;;;;;11.83;7.20;;;-0.30;99.90;;;;;;5115737;28;20031;-82
2022/01/25 04:08:20;;;;;;;10.55;5.63;;;-0.30;99.90;;;;;;5097743;28;20584;-81
2022/01/25 04:10:47;;;;;;;12.53;6.17;;;-0.30;99.90;;;;;;5097566;28;20118;-80
2022/01/25 04:13:12;;;;;;;13.70;6.40;;;-0.30;99.90;;;;;;5096405;28;20034;-82
2022/01/25 04:15:46;;;;;;;12.63;6.40;;;-0.20;99.90;;;;;;5096565;28;20031;-83
2022/01/25 04:20:54;;;;;;;14.30;6.40;;;-0.20;99.90;;;;;;5115720;28;20059;-80
2022/01/25 04:26:04;;;;;;;14.87;7.23;;;-0.30;99.90;;;;;;5098126;28;20100;-79
2022/01/25 04:28:30;;;;;;;16.63;8.13;;;-0.40;99.90;;;;;;5114545;28;20414;-80
2022/01/25 04:30:56;;;;;;;25.47;9.23;;;-0.30;99.90;;;;;;5095497;28;20024;-78
2022/01/25 04:33:26;;;;;;;22.03;9.30;;;-0.40;99.90;;;;;;5095152;28;20058;-79
2022/01/25 04:49:45;;;;;;;25.30;10.30;;;-0.20;99.90;;;;;;5114384;28;20073;-80
2022/01/25 04:52:15;;;;;;;23.00;10.00;;;-0.10;99.90;;;;;;5096113;28;20068;-81
2022/01/25 04:57:35;;;;;;;21.83;9.18;;;-0.20;99.90;;;;;;5126012;27;20050;-81
2022/01/25 05:00:13;;;;;;;23.10;9.40;;;-0.20;99.90;;;;;;5083909;28;20114;-82
2022/01/25 05:05:16;;;;;;;27.70;10.60;;;-0.10;99.90;;;;;;5098160;28;20397;-78
2022/01/25 05:10:17;;;;;;;27.03;10.13;;;-0.10;99.90;;;;;;5099161;28;20084;-78
2022/01/25 05:13:04;;;;;;;20.47;9.00;;;-0.10;99.90;;;;;;5096302;28;20126;-82
2022/01/25 05:23:20;;;;;;;15.07;7.07;;;-0.20;99.90;;;;;;5108837;28;20100;-81
2022/01/25 05:25:46;;;;;;;14.40;7.03;;;-0.20;99.90;;;;;;5092124;28;20480;-81
2022/01/25 05:28:12;;;;;;;17.57;7.53;;;-0.10;99.90;;;;;;5091600;28;20077;-81
2022/01/25 05:30:38;;;;;;;15.57;8.00;;;-0.20;99.90;;;;;;5092759;28;20059;-82
2022/01/25 05:33:04;;;;;;;15.40;7.67;;;-0.10;99.90;;;;;;5093189;28;20469;-82
2022/01/25 05:35:30;;;;;;;14.87;7.20;;;-0.10;99.90;;;;;;5081555;28;20028;-84
2022/01/25 05:37:56;;;;;;;19.27;7.93;;;-0.20;99.90;;;;;;5073862;28;20435;-77
2022/01/25 05:40:39;;;;;;;15.17;8.00;;;-0.20;99.90;;;;;;5078602;28;20107;-78
2022/01/25 05:48:11;;;;;;;17.47;7.87;;;-0.10;99.90;;;;;;5072748;28;20032;-82
2022/01/25 05:50:36;;;;;;;15.23;7.47;;;-0.20;99.90;;;;;;5071867;28;20024;-81
2022/01/25 05:53:02;;;;;;;14.23;7.60;;;-0.20;99.90;;;;;;5071831;28;20033;-80
2022/01/25 05:55:28;;;;;;;16.50;7.20;;;-0.10;99.90;;;;;;5088558;28;20028;-79
2022/01/25 05:57:53;;;;;;;13.30;6.93;;;-0.10;99.90;;;;;;5091755;28;20470;-79
2022/01/25 06:00:19;;;;;;;20.17;9.00;;;-0.10;99.90;;;;;;5090994;28;20520;-78
2022/01/25 06:02:46;;;;;;;18.37;8.47;;;-0.10;99.90;;;;;;5090914;28;20435;-78
2022/01/25 06:05:11;;;;;;;18.87;8.40;;;-0.10;99.90;;;;;;5082407;28;20493;-83
2022/01/25 06:07:37;;;;;;;16.80;8.37;;;0.00;99.90;;;;;;5089148;28;20028;-81
2022/01/25 06:10:03;;;;;;;20.63;8.53;;;0.10;99.90;;;;;;5082386;28;20066;-81
2022/01/25 06:12:29;;;;;;;21.33;8.23;;;0.10;99.90;;;;;;5091408;28;20032;-79
2022/01/25 06:14:55;;;;;;;19.03;8.40;;;0.20;99.90;;;;;;5091381;28;20035;-81
2022/01/25 06:17:20;;;;;;;18.30;8.27;;;0.30;99.90;;;;;;5091149;28;20050;-80
2022/01/25 06:19:46;;;;;;;21.33;8.63;;;0.20;99.90;;;;;;5091016;28;20032;-79
2022/01/25 06:22:12;;;;;;;17.90;7.57;;;0.20;99.90;;;;;;5091388;28;20109;-78
2022/01/25 06:24:37;;;;;;;17.97;7.90;;;0.40;99.90;;;;;;5098611;28;20054;-77
2022/01/25 06:27:03;;;;;;;16.87;8.13;;;0.40;99.90;;;;;;5097982;28;20031;-82
2022/01/25 06:29:29;;;;;;;15.70;7.40;;;0.40;99.90;;;;;;5117038;28;20429;-80
2022/01/25 06:31:55;;;;;;;18.80;8.07;;;0.50;99.90;;;;;;5099153;28;20131;-89
2022/01/25 06:34:20;;;;;;;18.17;8.50;;;0.40;99.90;;;;;;5096945;28;20056;-84
2022/01/25 06:36:47;;;;;;;21.37;9.20;;;0.50;99.90;;;;;;5099001;28;20042;-85
2022/01/25 06:39:13;;;;;;;24.77;8.63;;;0.30;99.90;;;;;;5096173;28;20118;-85
2022/01/25 06:41:39;;;;;;;19.53;8.97;;;0.30;99.90;;;;;;5116841;28;20073;-85
2022/01/25 06:44:06;;;;;;;22.73;8.87;;;0.30;99.90;;;;;;5098793;28;20423;-84
2022/01/25 06:46:31;;;;;;;21.40;9.33;;;0.20;99.90;;;;;;5098828;28;20063;-85
2022/01/25 06:48:57;;;;;;;21.93;9.67;;;0.10;99.90;;;;;;5098302;28;20047;-85
2022/01/25 06:51:22;;;;;;;26.10;9.77;;;0.10;99.90;;;;;;5098637;28;20068;-85
2022/01/25 06:53:48;;;;;;;23.70;9.80;;;0.00;99.90;;;;;;5098949;28;20028;-86
2022/01/25 06:56:14;;;;;;;18.90;8.93;;;-0.10;99.90;;;;;;5098418;28;20034;-85
2022/01/25 06:58:41;;;;;;;26.90;10.00;;;0.00;99.90;;;;;;5116979;28;20023;-85
2022/01/25 07:01:08;;;;;;;27.97;10.27;;;-0.10;99.90;;;;;;5098025;28;20062;-86
2022/01/25 07:03:34;;;;;;;25.30;9.60;;;-0.10;99.90;;;;;;5098819;28;20058;-85
2022/01/25 07:06:00;;;;;;;23.70;9.50;;;-0.20;99.90;;;;;;5097381;28;20026;-86
2022/01/25 07:08:25;;;;;;;41.50;11.10;;;-0.20;99.90;;;;;;5116733;28;20027;-86
2022/01/25 07:10:51;;;;;;;26.10;9.67;;;-0.20;99.90;;;;;;5098620;28;20488;-85
2022/01/25 07:13:17;;;;;;;22.20;9.80;;;-0.20;99.90;;;;;;5115958;28;20111;-85
2022/01/25 07:15:42;;;;;;;21.17;8.90;;;-0.30;99.90;;;;;;5097861;28;20114;-85
2022/01/25 07:18:09;;;;;;;26.83;9.60;;;-0.30;99.90;;;;;;5098006;28;20035;-85
2022/01/25 07:20:34;;;;;;;25.37;10.43;;;-0.30;99.90;;;;;;5098217;28;20028;-86
2022/01/25 07:23:00;;;;;;;19.43;8.80;;;-0.30;99.90;;;;;;5097747;28;20072;-86
2022/01/25 07:25:26;;;;;;;21.53;9.10;;;-0.30;99.90;;;;;;5094810;28;20048;-86
2022/01/25 07:27:53;;;;;;;24.43;9.47;;;-0.20;99.90;;;;;;5094659;28;20047;-85
2022/01/25 07:30:18;;;;;;;23.50;9.50;;;-0.10;99.90;;;;;;5094687;28;20449;-86
2022/01/25 07:32:44;;;;;;;24.47;9.47;;;-0.10;99.90;;;;;;5095041;28;20028;-86
2022/01/25 07:35:10;;;;;;;25.40;10.20;;;-0.20;99.90;;;;;;5093178;28;20027;-85
2022/01/25 07:37:35;;;;;;;18.63;9.47;;;-0.10;99.90;;;;;;5096068;28;20085;-85
2022/01/25 07:40:01;;;;;;;18.70;8.43;;;-0.10;99.90;;;;;;5094541;28;20020;-86
2022/01/25 07:42:29;;;;;;;17.43;8.40;;;0.00;99.90;;;;;;5094769;28;20393;-85
2022/01/25 07:44:55;;;;;;;15.27;8.17;;;0.00;99.90;;;;;;5094839;28;20063;-85
2022/01/25 07:47:21;;;;;;;20.03;9.50;;;0.10;99.90;;;;;;5095686;28;20027;-85
2022/01/25 07:49:47;;;;;;;20.83;10.07;;;0.00;99.90;;;;;;5094794;28;20028;-86
2022/01/25 07:52:13;;;;;;;22.43;9.67;;;0.00;99.90;;;;;;5094307;28;20102;-86
2022/01/25 07:54:39;;;;;;;21.63;9.80;;;0.00;99.90;;;;;;5095111;28;20044;-85
2022/01/25 07:57:05;;;;;;;23.10;9.87;;;0.00;99.90;;;;;;5093983;28;20461;-87
2022/01/25 07:59:30;;;;;;;23.93;9.87;;;0.10;99.90;;;;;;5095473;28;20023;-85
2022/01/25 08:01:56;;;;;;;22.93;10.63;;;0.10;99.90;;;;;;5095740;28;20103;-82
2022/01/25 08:04:22;;;;;;;18.37;10.03;;;0.20;99.90;;;;;;5094853;28;20119;-85
2022/01/25 08:06:48;;;;;;;22.03;10.23;;;0.30;99.90;;;;;;5095661;28;20038;-85
2022/01/25 08:09:14;;;;;;;24.10;10.03;;;0.30;99.90;;;;;;5094359;28;20061;-86
2022/01/25 08:11:40;;;;;;;26.27;11.80;;;0.20;99.90;;;;;;5094463;28;20036;-87
2022/01/25 08:14:13;;;;;;;20.77;9.90;;;0.20;99.90;;;;;;5093789;28;20051;-84
2022/01/25 08:16:41;;;;;;;21.87;9.97;;;0.20;99.90;;;;;;5094136;28;20032;-84
2022/01/25 08:19:07;;;;;;;26.47;10.43;;;0.30;99.90;;;;;;5093588;28;20590;-86
2022/01/25 08:21:33;;;;;;;24.77;10.57;;;0.30;99.90;;;;;;5094065;28;20027;-85
2022/01/25 08:23:59;;;;;;;24.63;10.47;;;0.30;99.90;;;;;;5094858;28;20024;-85
2022/01/25 08:26:24;;;;;;;25.47;10.87;;;0.30;99.90;;;;;;5110413;28;20484;-85
2022/01/25 08:28:50;;;;;;;22.13;10.47;;;0.40;99.90;;;;;;5115246;28;20027;-86
2022/01/25 08:31:15;;;;;;;28.13;10.80;;;0.40;99.90;;;;;;5096764;28;20080;-84
2022/01/25 08:33:41;;;;;;;21.63;10.13;;;0.40;99.90;;;;;;5097047;28;20035;-85
2022/01/25 08:36:07;;;;;;;25.07;11.70;;;0.50;99.90;;;;;;5114464;28;20024;-85
2022/01/25 08:38:32;;;;;;;27.50;12.13;;;0.40;99.90;;;;;;5114856;28;20024;-86
2022/01/25 08:40:58;;;;;;;28.67;13.97;;;0.50;99.90;;;;;;5096403;28;20111;-84
2022/01/25 08:43:24;;;;;;;27.50;12.87;;;0.50;99.90;;;;;;5115049;28;20077;-85
2022/01/25 08:45:50;;;;;;;24.93;12.17;;;0.60;99.90;;;;;;5114201;28;20412;-85
2022/01/25 08:48:16;;;;;;;21.10;11.60;;;0.60;99.90;;;;;;5096411;28;20180;-85
2022/01/25 08:50:42;;;;;;;24.50;10.97;;;0.70;99.90;;;;;;5096773;28;20024;-86
2022/01/25 08:53:09;;;;;;;21.17;10.33;;;0.70;99.90;;;;;;5114242;28;20031;-85
2022/01/25 08:55:35;;;;;;;24.73;11.17;;;0.70;99.90;;;;;;5096603;28;20118;-85
2022/01/25 08:58:00;;;;;;;22.93;11.40;;;0.90;99.90;;;;;;5096435;28;20119;-85
2022/01/25 09:00:26;;;;;;;21.93;11.07;;;0.90;99.90;;;;;;5114801;28;20145;-85
2022/01/25 09:02:52;;;;;;;22.43;10.93;;;0.90;99.90;;;;;;5096666;28;20164;-84
2022/01/25 09:05:18;;;;;;;25.60;11.63;;;0.90;99.90;;;;;;5095962;28;20138;-84
2022/01/25 09:07:44;;;;;;;23.30;11.30;;;0.90;99.90;;;;;;5096649;28;20051;-86
2022/01/25 09:10:09;;;;;;;23.47;11.20;;;0.90;99.90;;;;;;5096537;28;20016;-85
2022/01/25 09:12:35;;;;;;;25.70;11.30;;;0.90;99.90;;;;;;5096797;28;20035;-85
2022/01/25 09:15:01;;;;;;;27.47;11.73;;;1.00;99.90;;;;;;5096199;28;20027;-90
2022/01/25 09:17:27;;;;;;;29.60;12.27;;;1.10;99.90;;;;;;5113026;28;20055;-84
2022/01/25 09:19:52;;;;;;;26.97;11.87;;;1.10;99.90;;;;;;5095587;28;20045;-78
2022/01/25 09:22:19;;;;;;;27.23;12.37;;;1.10;99.90;;;;;;5095035;28;20024;-79
2022/01/25 09:24:45;;;;;;;29.80;12.60;;;1.30;99.90;;;;;;5095453;28;20498;-79
2022/01/25 09:27:11;;;;;;;35.07;13.07;;;1.30;99.90;;;;;;5095351;28;20028;-80
2022/01/25 09:29:36;;;;;;;28.10;12.40;;;1.40;99.90;;;;;;5095865;28;20028;-82
2022/01/25 09:32:03;;;;;;;31.70;13.00;;;1.50;99.90;;;;;;5095034;28;20457;-85
2022/01/25 09:34:29;;;;;;;41.73;15.63;;;1.50;99.90;;;;;;5109048;28;20024;-90
2022/01/25 09:36:55;;;;;;;36.50;14.33;;;1.60;99.90;;;;;;5076198;28;20031;-91
2022/01/25 09:39:21;;;;;;;39.50;15.47;;;1.70;99.90;;;;;;5091998;28;20028;-93
2022/01/25 09:41:47;;;;;;;37.77;15.27;;;1.70;99.90;;;;;;5114560;28;20380;-89
2022/01/25 09:44:12;;;;;;;35.23;15.67;;;1.70;99.90;;;;;;5113876;28;20372;-92
2022/01/25 09:46:39;;;;;;;43.40;16.00;;;1.70;99.90;;;;;;5114322;28;20032;-92
2022/01/25 09:49:05;;;;;;;43.40;17.67;;;1.70;99.90;;;;;;5095608;28;20038;-91
2022/01/25 09:51:32;;;;;;;43.20;16.47;;;1.70;99.90;;;;;;5096261;28;20027;-92
2022/01/25 09:53:58;;;;;;;47.07;16.93;;;1.70;99.90;;;;;;5078949;28;20377;-88
2022/01/25 09:56:24;;;;;;;46.30;17.57;;;1.80;99.90;;;;;;5096311;28;20027;-89
2022/01/25 09:58:50;;;;;;;41.80;17.27;;;1.70;99.90;;;;;;5095567;28;20027;-88
2022/01/25 10:01:25;;;;;;;42.37;16.90;;;1.80;99.90;;;;;;5094680;28;20834;-84
2022/01/25 10:03:51;;;;;;;43.67;17.27;;;1.80;99.90;;;;;;5110753;28;20028;-86
2022/01/25 10:06:20;;;;;;;36.90;16.20;;;1.80;99.90;;;;;;5104988;28;20042;-87
2022/01/25 10:08:50;;;;;;;38.57;15.63;;;1.80;99.90;;;;;;5090330;28;20024;-86
2022/01/25 10:11:19;;;;;;;42.73;16.63;;;1.90;99.90;;;;;;5094945;28;20020;-86
2022/01/25 10:13:48;;;;;;;40.10;17.40;;;1.90;99.90;;;;;;5113273;28;20032;-86
2022/01/25 10:16:29;;;;;;;44.80;17.83;;;1.90;99.90;;;;;;5094815;28;20028;-82
2022/01/25 10:19:00;;;;;;;40.77;16.90;;;1.80;99.90;;;;;;5095378;28;20043;-89
2022/01/25 10:21:35;;;;;;;39.38;17.08;;;1.80;99.90;;;;;;5095484;28;20116;-87
2022/01/25 10:24:31;;;;;;;48.27;17.90;;;2.00;99.90;;;;;;5092590;28;20499;-85
2022/01/25 10:27:00;;;;;;;45.17;18.47;;;1.90;99.90;;;;;;5085831;28;20040;-88
2022/01/25 10:29:30;;;;;;;43.57;16.90;;;2.00;99.90;;;;;;5095724;28;20122;-83
2022/01/25 10:32:06;;;;;;;46.10;18.23;;;2.00;99.90;;;;;;5095719;28;20051;-85
2022/01/25 10:34:36;;;;;;;50.90;18.70;;;2.00;99.90;;;;;;5095275;28;20489;-83
2022/01/25 10:37:11;;;;;;;42.40;18.10;;;2.10;99.90;;;;;;5112590;28;20062;-88
2022/01/25 10:39:40;;;;;;;39.30;17.37;;;2.20;99.90;;;;;;5095297;28;20035;-85
2022/01/25 10:42:29;;;;;;;40.73;17.40;;;2.20;99.90;;;;;;5112729;28;20031;-83
2022/01/25 10:45:05;;;;;;;43.10;18.03;;;2.30;99.90;;;;;;5113124;28;20496;-85
2022/01/25 10:47:40;;;;;;;37.08;16.23;;;2.40;99.90;;;;;;5095309;28;20028;-84
2022/01/25 10:50:42;;;;;;;40.30;18.20;;;2.30;99.90;;;;;;5086856;28;20024;-85
2022/01/25 10:53:16;;;;;;;43.90;18.05;;;2.30;99.90;;;;;;4990701;28;20189;-83
2022/01/25 10:55:51;;;;;;;40.03;18.00;;;2.20;99.90;;;;;;5025403;28;20052;-86
2022/01/25 10:58:20;;;;;;;72.27;25.27;;;2.30;99.90;;;;;;4999508;28;20372;-85
2022/01/25 11:00:50;;;;;;;65.70;22.70;;;2.20;99.90;;;;;;5011143;28;20148;-90
2022/01/25 11:03:40;;;;;;;53.70;19.83;;;2.20;99.90;;;;;;5010466;28;20041;-88
2022/01/25 11:06:16;;;;;;;56.50;20.97;;;2.20;99.90;;;;;;5006750;28;20075;-90
2022/01/25 11:08:43;;;;;;;54.00;20.23;;;2.20;99.90;;;;;;4995273;28;20026;-86
2022/01/25 11:11:10;;;;;;;60.47;22.67;;;2.30;99.90;;;;;;5013717;28;20134;-85
2022/01/25 11:13:38;;;;;;;60.00;22.20;;;2.20;99.90;;;;;;5013916;28;20037;-86
2022/01/25 11:16:12;;;;;;;53.10;20.23;;;2.20;99.90;;;;;;5013635;28;20037;-87
2022/01/25 11:18:38;;;;;;;43.97;17.80;;;2.20;99.90;;;;;;5014330;28;20077;-91
2022/01/25 11:21:10;;;;;;;43.03;18.57;;;2.20;99.90;;;;;;5013664;28;20179;-90
2022/01/25 11:23:39;;;;;;;45.28;18.13;;;2.20;99.90;;;;;;5014411;28;20042;-90
2022/01/25 11:26:08;;;;;;;47.03;17.93;;;2.20;99.90;;;;;;5013635;28;20096;-88
2022/01/25 11:28:35;;;;;;;43.77;17.90;;;2.20;99.90;;;;;;5014329;28;20057;-87
2022/01/25 11:31:08;;;;;;;43.10;18.27;;;2.20;99.90;;;;;;5082709;28;20036;-85
2022/01/25 11:33:35;;;;;;;44.90;18.03;;;2.20;99.90;;;;;;5096048;28;20060;-85
2022/01/25 11:36:07;;;;;;;46.87;18.33;;;2.30;99.90;;;;;;5073880;28;20055;-87
2022/01/25 11:38:43;;;;;;;;;;;2.20;99.90;;;;;;5071448;28;20047;-87
2022/01/25 11:41:12;;;;;;;36.83;14.97;;;2.20;99.90;;;;;;5071006;28;19931;-88
2022/01/25 11:43:41;;;;;;;40.63;16.37;;;2.10;99.90;;;;;;5095574;28;20039;-84
2022/01/25 11:46:07;;;;;;;39.70;17.20;;;2.10;99.90;;;;;;5073007;28;20059;-85
2022/01/25 11:48:44;;;;;;;43.27;18.13;;;2.20;99.90;;;;;;5078333;28;20031;-91
2022/01/25 11:51:19;;;;;;;46.30;17.97;;;2.10;99.90;;;;;;5070948;28;20020;-88
2022/01/25 11:53:47;;;;;;;45.30;18.37;;;2.10;99.90;;;;;;5070171;28;20040;-86
2022/01/25 11:56:14;;;;;;;40.83;17.53;;;2.20;99.90;;;;;;5095167;28;20028;-87
2022/01/25 11:58:41;;;;;;;41.97;16.87;;;2.10;99.90;;;;;;5074315;28;20039;-92
2022/01/25 12:01:17;;;;;;;45.27;18.93;;;2.10;99.90;;;;;;5064114;28;20020;-84
2022/01/25 12:03:47;;;;;;;47.67;18.87;;;2.10;99.90;;;;;;5073519;28;20039;-88
2022/01/25 12:06:26;;;;;;;49.17;18.07;;;2.20;99.90;;;;;;5076975;28;20062;-86
2022/01/25 12:09:21;;;;;;;44.83;18.10;;;2.20;99.90;;;;;;5077797;28;20028;-87
2022/01/25 12:11:59;;;;;;;50.03;19.60;;;2.20;99.90;;;;;;5074124;28;20424;-87
2022/01/25 12:14:38;;;;;;;45.27;18.13;;;2.20;99.90;;;;;;5058073;28;20060;-87
2022/01/25 12:17:03;;;;;;;44.10;18.57;;;2.20;99.90;;;;;;5069559;28;20036;-86
2022/01/25 12:19:53;;;;;;;48.60;18.37;;;2.30;99.90;;;;;;5073942;28;20371;-88
2022/01/25 12:22:26;;;;;;;45.77;18.93;;;2.30;99.90;;;;;;5063598;28;20077;-86
2022/01/25 12:25:08;;;;;;;45.27;19.00;;;2.30;99.90;;;;;;5075962;28;20029;-86
2022/01/25 12:27:43;;;;;;;43.58;17.75;;;2.20;99.90;;;;;;5111977;28;20027;-92
2022/01/25 12:30:14;;;;;;;39.47;16.83;;;2.30;99.90;;;;;;5089034;28;20074;-92
2022/01/25 12:33:04;;;;;;;40.03;16.73;;;2.30;99.90;;;;;;5091709;27;20119;-86
2022/01/25 12:35:35;;;;;;;46.10;17.80;;;2.30;99.90;;;;;;5105916;27;20446;-85
2022/01/25 12:38:06;;;;;;;48.07;18.70;;;2.30;99.90;;;;;;5103844;28;20020;-82
2022/01/25 12:40:36;;;;;;;44.38;18.05;;;2.30;99.90;;;;;;5108285;27;20023;-82
2022/01/25 12:43:14;;;;;;;44.97;18.43;;;2.40;99.90;;;;;;5104434;27;20031;-81
2022/01/25 12:45:45;;;;;;;48.20;18.97;;;2.30;99.90;;;;;;5101713;28;20028;-82
2022/01/25 12:48:18;;;;;;;42.33;17.73;;;2.30;99.90;;;;;;5105108;27;20027;-81
2022/01/25 12:50:49;;;;;;;42.57;18.03;;;2.40;99.90;;;;;;5105418;27;20019;-85
2022/01/25 12:53:18;;;;;;;33.92;13.55;;;2.40;99.90;;;;;;5102074;27;20034;-81
2022/01/25 12:55:47;;;;;;;43.60;18.40;;;2.50;99.90;;;;;;5105968;27;20031;-89
2022/01/25 12:58:13;;;;;;;43.67;18.17;;;2.50;99.90;;;;;;5102800;27;20015;-88
2022/01/25 13:00:43;;;;;;;43.10;17.67;;;2.50;99.90;;;;;;5099514;27;20023;-79
2022/01/25 13:03:29;;;;;;;39.13;17.20;;;2.50;99.90;;;;;;5106354;28;20034;-82
2022/01/25 13:06:29;;;;;;;40.80;16.50;;;2.60;99.90;;;;;;5103403;28;20031;-84
2022/01/25 13:09:06;;;;;;;43.90;18.57;;;2.70;99.90;;;;;;5082718;27;20465;-89
2022/01/25 13:17:12;;;;;;;45.87;18.37;;;2.50;99.90;;;;;;5119319;27;20423;-90
2022/01/25 13:19:44;;;;;;;40.43;17.30;;;2.50;99.90;;;;;;5093238;28;20059;-80
2022/01/25 13:22:18;;;;;;;;;;;2.40;99.90;;;;;;5096387;28;20031;-85
2022/01/25 13:25:12;;;;;;;41.50;16.67;;;2.40;99.90;;;;;;5095895;28;20392;-84
2022/01/25 13:27:48;;;;;;;42.60;18.17;;;2.60;99.90;;;;;;5113809;28;20138;-81
2022/01/25 13:33:00;;;;;;;45.13;18.20;;;3.00;99.90;;;;;;5113204;28;20030;-82
2022/01/25 13:35:31;;;;;;;44.53;18.40;;;3.10;99.90;;;;;;5114794;28;20411;-82
2022/01/25 13:38:19;;;;;;;39.58;17.75;;;3.20;99.90;;;;;;5082626;28;20065;-83
2022/01/25 13:40:59;;;;;;;42.37;18.37;;;3.20;99.90;;;;;;5114344;28;20028;-84
2022/01/25 13:45:42;;;;;;;49.53;19.30;;;3.20;99.90;;;;;;5095947;28;20027;-82
2022/01/25 13:46:19;;;;;;;43.00;19.23;;;3.20;99.90;;;;;;5099045;28;20532;-82
2022/01/25 13:48:46;;;;;;;44.83;18.70;;;3.20;99.90;;;;;;5093933;28;20045;-82
2022/01/25 13:51:19;;;;;;;43.13;18.57;;;3.30;99.90;;;;;;5113656;28;20522;-81
2022/01/25 13:54:00;;;;;;;47.37;18.90;;;3.30;99.90;;;;;;5095678;28;20480;-81
2022/01/25 13:56:30;;;;;;;43.40;19.10;;;3.30;99.90;;;;;;5096017;28;20118;-84
2022/01/25 13:58:56;;;;;;;45.33;20.03;;;3.20;99.90;;;;;;5095834;28;20023;-79
2022/01/25 14:01:27;;;;;;;45.03;19.67;;;3.20;99.90;;;;;;5112611;28;20043;-79
2022/01/25 14:03:57;;;;;;;44.37;18.87;;;3.20;99.90;;;;;;5096537;28;20054;-84
2022/01/25 14:06:35;;;;;;;49.33;20.17;;;3.10;99.90;;;;;;5095195;28;20027;-78
2022/01/25 14:09:06;;;;;;;51.00;19.97;;;3.10;99.90;;;;;;5095213;28;20027;-80
2022/01/25 14:11:52;;;;;;;44.10;19.17;;;3.20;99.90;;;;;;5113757;28;20043;-81
2022/01/25 14:26:07;;;;;;;42.67;18.30;;;3.20;99.90;;;;;;5030318;28;20057;-79
2022/01/25 14:28:40;;;;;;;42.63;18.30;;;3.20;99.90;;;;;;5086945;28;20027;-79
2022/01/25 14:31:17;;;;;;;47.37;19.30;;;3.30;99.90;;;;;;5094959;28;20106;-81
2022/01/25 14:33:53;;;;;;;44.47;19.00;;;3.20;99.90;;;;;;5091507;28;20042;-83
2022/01/25 14:36:19;;;;;;;51.93;20.63;;;3.30;99.90;;;;;;5095137;28;20059;-79
2022/01/25 14:38:47;;;;;;;48.13;18.93;;;3.30;99.90;;;;;;5112379;28;20484;-79
2022/01/25 14:41:19;;;;;;;43.57;17.67;;;3.30;99.90;;;;;;5094702;28;20055;-79
2022/01/25 14:43:56;;;;;;;45.00;19.30;;;3.30;99.90;;;;;;5097930;28;20051;-78
2022/01/25 14:46:25;;;;;;;44.23;18.60;;;3.30;99.90;;;;;;5093399;28;20043;-78
2022/01/25 14:49:07;;;;;;;45.30;18.27;;;3.30;99.90;;;;;;5116554;28;20035;-78
2022/01/25 14:51:38;;;;;;;28.52;12.02;;;3.20;99.90;;;;;;5098857;28;20023;-79
2022/01/25 14:54:08;;;;;;;41.87;17.53;;;3.20;99.90;;;;;;5098573;28;20031;-78
2022/01/25 14:56:37;;;;;;;40.90;17.77;;;3.20;99.90;;;;;;5098996;28;20034;-78
2022/01/25 15:01:32;;;;;;;41.90;17.10;;;3.10;99.90;;;;;;5112602;28;20387;-81
2022/01/25 15:03:58;;;;;;;43.80;18.57;;;3.10;99.90;;;;;;5100772;28;20087;-81
2022/01/25 15:06:24;;;;;;;40.23;17.87;;;3.20;99.90;;;;;;5098185;28;20023;-79
2022/01/25 15:08:52;;;;;;;44.47;19.00;;;3.20;99.90;;;;;;5116142;28;20157;-78